createdAt,value
2018-08-10T00:01:08.730Z,22.63
2018-08-10T00:03:40.405Z,22.68
2018-08-10T00:06:12.204Z,22.68
2018-08-10T00:08:44.404Z,22.63
2018-08-10T00:11:14.703Z,22.58
2018-08-10T00:13:45.802Z,22.51
2018-08-10T00:16:20.642Z,22.50
2018-08-10T00:18:51.114Z,22.56
2018-08-10T00:21:21.381Z,22.55
2018-08-10T00:23:51.492Z,22.60
2018-08-10T00:26:22.902Z,22.65
2018-08-10T00:28:54.377Z,22.70
2018-08-10T00:31:25.484Z,22.76
2018-08-10T00:33:57.176Z,22.82
2018-08-10T00:36:28.961Z,22.81
2018-08-10T00:39:00.446Z,22.79
2018-08-10T00:41:30.993Z,22.71
2018-08-10T00:44:12.404Z,22.74
2018-08-10T00:46:43.848Z,22.66
2018-08-10T00:49:14.209Z,22.61
2018-08-10T00:51:44.682Z,22.64
2018-08-10T00:54:14.864Z,22.58
2018-08-10T00:56:46.871Z,22.63
2018-08-10T00:59:18.187Z,22.61
2018-08-10T01:01:48.622Z,22.68
2018-08-10T01:04:19.171Z,22.70
2018-08-10T01:06:51.659Z,22.74
2018-08-10T01:09:24.225Z,22.75
2018-08-10T01:11:55.876Z,22.63
2018-08-10T01:14:26.919Z,22.55
2018-08-10T01:16:57.571Z,22.70
2018-08-10T01:19:28.510Z,22.66
2018-08-10T01:22:00.012Z,22.72
2018-08-10T01:24:31.331Z,22.63
2018-08-10T01:27:01.451Z,22.61
2018-08-10T01:29:32.367Z,22.57
2018-08-10T01:32:03.123Z,22.49
2018-08-10T01:34:34.368Z,22.40
2018-08-10T01:37:05.365Z,22.35
2018-08-10T01:39:36.150Z,22.32
2018-08-10T01:42:07.976Z,22.36
2018-08-10T01:44:38.350Z,22.25
2018-08-10T01:47:10.525Z,22.19
2018-08-10T01:49:40.897Z,22.13
2018-08-10T01:52:11.021Z,22.15
2018-08-10T01:54:41.335Z,22.08
2018-08-10T01:57:11.525Z,22.12
2018-08-10T01:59:42.774Z,22.22
2018-08-10T02:02:13.609Z,22.13
2018-08-10T02:04:44.319Z,21.75
2018-08-10T02:07:15.245Z,21.66
2018-08-10T02:09:45.589Z,21.61
2018-08-10T02:12:17.233Z,21.57
2018-08-10T02:14:48.388Z,21.53
2018-08-10T02:17:19.842Z,21.51
2018-08-10T02:19:50.601Z,21.48
2018-08-10T02:22:21.731Z,21.59
2018-08-10T02:24:52.963Z,21.49
2018-08-10T02:27:23.605Z,21.46
2018-08-10T02:29:55.045Z,21.47
2018-08-10T02:32:25.611Z,21.57
2018-08-10T02:34:56.098Z,21.50
2018-08-10T02:37:27.501Z,21.54
2018-08-10T02:39:58.214Z,21.50
2018-08-10T02:42:28.802Z,21.50
2018-08-10T02:44:59.200Z,21.36
2018-08-10T02:47:30.045Z,21.34
2018-08-10T02:50:00.667Z,21.37
2018-08-10T02:52:31.668Z,21.34
2018-08-10T02:55:01.802Z,21.35
2018-08-10T02:57:31.980Z,21.29
2018-08-10T03:00:02.719Z,21.21
2018-08-10T03:02:33.320Z,21.20
2018-08-10T03:05:05.208Z,21.16
2018-08-10T03:07:36.826Z,21.10
2018-08-10T03:10:08.294Z,21.00
2018-08-10T03:12:39.350Z,20.97
2018-08-10T03:15:13.264Z,20.89
2018-08-10T03:17:44.677Z,20.84
2018-08-10T03:20:15.505Z,20.74
2018-08-10T03:22:45.664Z,20.71
2018-08-10T03:25:17.459Z,20.60
2018-08-10T03:27:55.653Z,20.55
2018-08-10T03:30:25.734Z,20.53
2018-08-10T03:32:57.871Z,20.53
2018-08-10T03:35:30.562Z,20.47
2018-08-10T03:38:01.192Z,20.37
2018-08-10T03:40:32.260Z,20.28
2018-08-10T03:43:03.184Z,20.26
2018-08-10T03:45:34.004Z,20.20
2018-08-10T03:48:05.005Z,20.46
2018-08-10T03:50:36.494Z,20.43
2018-08-10T03:53:08.299Z,20.25
2018-08-10T03:55:38.884Z,20.18
2018-08-10T03:58:09.039Z,19.85
2018-08-10T04:00:39.731Z,19.73
2018-08-10T04:03:10.823Z,19.71
2018-08-10T04:05:41.253Z,19.66
2018-08-10T04:08:12.675Z,19.62
2018-08-10T04:10:44.888Z,19.64
2018-08-10T04:13:15.556Z,19.60
2018-08-10T04:15:45.686Z,19.53
2018-08-10T04:18:17.575Z,19.47
2018-08-10T04:20:48.947Z,19.33
2018-08-10T04:23:20.579Z,19.21
2018-08-10T04:25:52.195Z,19.13
2018-08-10T04:28:22.309Z,19.00
2018-08-10T04:30:52.425Z,18.89
2018-08-10T04:33:23.249Z,18.78
2018-08-10T04:35:54.247Z,18.67
2018-08-10T04:38:25.637Z,18.56
2018-08-10T04:40:56.593Z,18.74
2018-08-10T04:43:26.880Z,18.78
2018-08-10T04:45:57.305Z,18.68
2018-08-10T04:48:28.025Z,18.76
2018-08-10T04:50:58.381Z,18.84
2018-08-10T04:53:29.487Z,18.86
2018-08-10T04:56:00.347Z,18.85
2018-08-10T04:58:32.152Z,18.89
2018-08-10T05:01:04.603Z,19.00
2018-08-10T05:03:36.462Z,19.04
2018-08-10T05:06:06.690Z,19.03
2018-08-10T05:08:37.813Z,18.96
2018-08-10T05:11:08.408Z,19.15
2018-08-10T05:13:38.553Z,19.25
2018-08-10T05:16:09.521Z,19.30
2018-08-10T05:18:40.995Z,19.47
2018-08-10T05:21:13.607Z,19.59
2018-08-10T05:23:44.905Z,19.78
2018-08-10T05:26:16.630Z,19.72
2018-08-10T05:28:47.197Z,19.72
2018-08-10T05:31:17.903Z,20.03
2018-08-10T05:33:48.602Z,19.99
2018-08-10T05:36:19.647Z,20.15
2018-08-10T05:38:50.258Z,20.02
2018-08-10T05:41:21.537Z,20.24
2018-08-10T05:43:51.775Z,20.53
2018-08-10T05:46:22.157Z,20.77
2018-08-10T05:48:54.001Z,21.11
2018-08-10T05:51:25.128Z,20.98
2018-08-10T05:53:56.227Z,21.47
2018-08-10T05:56:26.486Z,21.76
2018-08-10T05:58:57.188Z,22.06
2018-08-10T06:01:27.495Z,21.57
2018-08-10T06:03:58.041Z,20.71
2018-08-10T06:06:28.504Z,20.53
2018-08-10T06:08:59.009Z,20.22
2018-08-10T06:11:29.197Z,20.17
2018-08-10T06:13:59.334Z,19.96
2018-08-10T06:16:30.577Z,20.02
2018-08-10T06:19:02.080Z,20.12
2018-08-10T06:21:32.971Z,20.60
2018-08-10T06:24:03.425Z,20.53
2018-08-10T06:26:33.834Z,20.16
2018-08-10T06:29:04.756Z,20.15
2018-08-10T06:31:35.278Z,20.01
2018-08-10T06:34:06.724Z,19.97
2018-08-10T06:36:38.083Z,20.00
2018-08-10T06:39:10.610Z,20.18
2018-08-10T06:41:41.735Z,20.18
2018-08-10T06:44:12.874Z,20.29
2018-08-10T06:46:43.884Z,19.77
2018-08-10T06:49:17.022Z,19.57
2018-08-10T06:51:48.504Z,19.90
2018-08-10T06:54:20.698Z,19.72
2018-08-10T06:56:51.606Z,19.76
2018-08-10T06:59:21.842Z,19.96
2018-08-10T07:01:52.206Z,20.04
2018-08-10T07:04:22.399Z,19.78
2018-08-10T07:06:53.404Z,19.85
2018-08-10T07:09:24.703Z,19.80
2018-08-10T07:11:57.926Z,19.76
2018-08-10T07:14:29.086Z,19.83
2018-08-10T07:16:59.646Z,19.94
2018-08-10T07:19:29.958Z,19.73
2018-08-10T07:22:01.176Z,19.62
2018-08-10T07:24:32.396Z,19.46
2018-08-10T07:27:02.714Z,19.37
2018-08-10T07:29:34.181Z,19.58
2018-08-10T07:32:04.636Z,19.66
2018-08-10T07:34:35.050Z,19.61
2018-08-10T07:37:06.462Z,19.76
2018-08-10T07:39:38.237Z,20.26
2018-08-10T07:42:08.744Z,20.33
2018-08-10T07:44:39.839Z,20.53
2018-08-10T07:47:11.117Z,20.81
2018-08-10T07:49:44.314Z,20.78
2018-08-10T07:52:15.587Z,21.05
2018-08-10T07:54:45.746Z,21.29
2018-08-10T07:57:16.906Z,21.52
2018-08-10T07:59:52.100Z,21.64
2018-08-10T08:02:23.418Z,21.91
2018-08-10T08:04:53.550Z,21.60
2018-08-10T08:07:23.905Z,21.14
2018-08-10T08:09:54.790Z,21.42
2018-08-10T08:12:25.729Z,21.37
2018-08-10T08:14:55.978Z,22.14
2018-08-10T08:17:26.613Z,22.38
2018-08-10T08:19:57.090Z,22.59
2018-08-10T08:22:29.368Z,22.68
2018-08-10T08:24:59.743Z,22.58
2018-08-10T08:27:29.930Z,22.32
2018-08-10T08:30:00.157Z,21.96
2018-08-10T08:32:31.158Z,22.23
2018-08-10T08:35:03.098Z,22.49
2018-08-10T08:37:33.866Z,22.36
2018-08-10T08:40:23.526Z,22.68
2018-08-10T08:42:54.542Z,22.80
2018-08-10T08:45:37.702Z,22.66
2018-08-10T08:48:08.396Z,23.39
2018-08-10T08:50:40.742Z,24.83
2018-08-10T08:53:11.431Z,25.04
2018-08-10T08:55:47.490Z,25.13
2018-08-10T08:58:17.785Z,25.43
2018-08-10T09:00:47.980Z,24.45
2018-08-10T09:03:29.850Z,23.37
2018-08-10T09:06:00.848Z,24.17
2018-08-10T09:08:32.024Z,24.24
2018-08-10T09:11:03.820Z,25.23
2018-08-10T09:14:44.467Z,24.85
2018-08-10T09:17:15.243Z,24.65
2018-08-10T09:19:45.465Z,24.41
2018-08-10T09:22:15.773Z,25.03
2018-08-10T09:24:46.776Z,25.36
2018-08-10T09:27:17.431Z,25.52
2018-08-10T09:29:48.519Z,25.44
2018-08-10T09:32:18.818Z,25.40
2018-08-10T09:34:48.989Z,26.37
2018-08-10T09:37:19.232Z,25.86
2018-08-10T09:39:49.470Z,26.94
2018-08-10T09:42:20.406Z,28.89
2018-08-10T09:44:50.540Z,28.38
2018-08-10T09:47:21.041Z,27.75
2018-08-10T09:49:51.996Z,26.93
2018-08-10T09:52:22.189Z,26.65
2018-08-10T09:57:05.421Z,26.51
2018-08-10T09:59:35.573Z,25.80
2018-08-10T10:02:08.991Z,25.15
2018-08-10T10:04:40.245Z,24.69
2018-08-10T10:07:10.585Z,25.29
2018-08-10T10:09:40.891Z,24.87
2018-08-10T10:12:11.751Z,25.09
2018-08-10T10:14:42.047Z,25.74
2018-08-10T10:17:15.421Z,25.91
2018-08-10T10:19:45.663Z,26.02
2018-08-10T10:22:15.923Z,26.47
2018-08-10T10:24:46.350Z,28.13
2018-08-10T10:27:16.531Z,28.36
2018-08-10T10:29:47.476Z,27.69
2018-08-10T10:32:18.238Z,26.36
2018-08-10T10:34:49.292Z,26.51
2018-08-10T10:37:20.663Z,27.02
2018-08-10T10:39:51.027Z,25.77
2018-08-10T10:42:22.294Z,25.66
2018-08-10T10:47:35.137Z,26.18
2018-08-10T10:50:10.691Z,26.14
2018-08-10T10:52:42.831Z,26.14
2018-08-10T10:55:13.379Z,26.06
2018-08-10T10:57:45.129Z,25.60
2018-08-10T11:00:17.125Z,25.65
2018-08-10T11:02:49.753Z,26.04
2018-08-10T11:05:26.049Z,26.48
2018-08-10T11:07:57.338Z,26.00
2018-08-10T11:10:28.165Z,26.95
2018-08-10T11:12:58.720Z,27.83
2018-08-10T11:15:29.011Z,28.13
2018-08-10T11:17:59.232Z,29.72
2018-08-10T11:20:29.564Z,29.67
2018-08-10T11:22:59.813Z,28.50
2018-08-10T11:25:30.178Z,30.51
2018-08-10T11:28:01.038Z,30.80
2018-08-10T11:30:31.902Z,30.26
2018-08-10T11:33:02.292Z,31.70
2018-08-10T11:35:35.428Z,29.94
2018-08-10T11:38:05.630Z,29.37
2018-08-10T11:40:35.811Z,30.30
2018-08-10T11:43:06.056Z,32.41
2018-08-10T11:45:36.269Z,31.66
2018-08-10T11:48:06.526Z,33.43
2018-08-10T11:50:36.895Z,34.81
2018-08-10T11:53:08.713Z,34.57
2018-08-10T11:55:44.686Z,33.68
2018-08-10T11:58:15.413Z,35.18
2018-08-10T12:00:45.706Z,35.79
2018-08-10T12:03:17.225Z,35.47
2018-08-10T12:05:51.632Z,33.74
2018-08-10T12:08:22.647Z,34.87
2018-08-10T12:10:52.956Z,35.63
2018-08-10T12:13:25.868Z,35.06
2018-08-10T12:15:57.346Z,34.00
2018-08-10T12:18:27.632Z,31.64
2018-08-10T12:20:58.457Z,31.84
2018-08-10T12:23:28.893Z,32.48
2018-08-10T12:25:59.155Z,30.99
2018-08-10T12:28:29.421Z,29.66
2018-08-10T12:31:00.269Z,29.61
2018-08-10T12:33:30.993Z,29.87
2018-08-10T12:36:01.737Z,29.98
2018-08-10T12:38:32.083Z,30.19
2018-08-10T12:41:02.272Z,29.44
2018-08-10T12:43:33.140Z,30.20
2018-08-10T12:46:06.012Z,31.21
2018-08-10T12:48:40.275Z,32.30
2018-08-10T12:51:10.577Z,32.95
2018-08-10T12:53:42.758Z,32.25
2018-08-10T12:56:12.989Z,29.69
2018-08-10T12:58:44.271Z,28.67
2018-08-10T13:01:14.621Z,28.56
2018-08-10T13:03:48.129Z,28.34
2018-08-10T13:06:23.997Z,28.71
2018-08-10T13:08:55.559Z,28.76
2018-08-10T13:11:25.986Z,27.77
2018-08-10T13:13:56.361Z,27.77
2018-08-10T13:16:27.537Z,28.07
2018-08-10T13:19:00.327Z,28.22
2018-08-10T13:21:31.621Z,29.17
2018-08-10T13:24:02.222Z,28.95
2018-08-10T13:26:34.019Z,28.82
2018-08-10T13:29:05.335Z,28.15
2018-08-10T13:31:35.803Z,28.74
2018-08-10T13:34:07.526Z,31.09
2018-08-10T13:36:38.007Z,32.36
2018-08-10T13:39:10.901Z,34.12
2018-08-10T13:41:43.337Z,33.75
2018-08-10T13:44:13.828Z,33.12
2018-08-10T13:46:44.321Z,33.67
2018-08-10T13:49:15.885Z,35.98
2018-08-10T13:51:46.073Z,35.56
2018-08-10T13:54:16.309Z,35.12
2018-08-10T13:56:46.519Z,35.15
2018-08-10T13:59:16.797Z,33.34
2018-08-10T14:01:47.821Z,32.84
2018-08-10T14:04:18.865Z,31.62
2018-08-10T14:06:49.021Z,31.52
2018-08-10T14:09:21.385Z,32.29
2018-08-10T14:11:51.675Z,30.94
2018-08-10T14:14:21.839Z,31.27
2018-08-10T14:17:01.124Z,32.24
2018-08-10T14:19:33.157Z,33.32
2018-08-10T14:22:03.373Z,32.85
2018-08-10T14:24:34.077Z,32.90
2018-08-10T14:27:04.295Z,33.12
2018-08-10T14:29:35.097Z,33.27
2018-08-10T14:32:06.161Z,33.01
2018-08-10T14:34:36.525Z,32.90
2018-08-10T14:37:06.697Z,31.64
2018-08-10T14:39:37.847Z,30.74
2018-08-10T14:42:08.165Z,28.53
2018-08-10T14:44:39.838Z,27.98
2018-08-10T14:47:13.622Z,27.67
2018-08-10T14:49:44.288Z,28.16
2018-08-10T14:52:15.876Z,28.12
2018-08-10T14:54:46.157Z,30.23
2018-08-10T14:57:16.378Z,31.12
2018-08-10T14:59:47.769Z,31.56
2018-08-10T15:02:19.402Z,31.28
2018-08-10T15:04:49.742Z,33.06
2018-08-10T15:07:20.692Z,31.50
2018-08-10T15:09:53.876Z,30.22
2018-08-10T15:12:25.305Z,29.74
2018-08-10T15:14:55.232Z,29.69
2018-08-10T15:17:26.873Z,28.74
2018-08-10T15:19:57.133Z,27.50
2018-08-10T15:22:29.118Z,27.29
2018-08-10T15:24:59.828Z,26.88
2018-08-10T15:27:29.984Z,26.78
2018-08-10T15:30:00.077Z,26.60
2018-08-10T15:32:30.373Z,26.29
2018-08-10T15:35:01.652Z,26.78
2018-08-10T15:37:31.954Z,26.54
2018-08-10T15:40:02.569Z,26.41
2018-08-10T15:42:33.627Z,26.24
2018-08-10T15:45:05.826Z,25.95
2018-08-10T15:47:37.361Z,25.96
2018-08-10T15:50:08.618Z,26.31
2018-08-10T15:52:40.350Z,26.14
2018-08-10T15:55:11.015Z,26.11
2018-08-10T15:57:44.036Z,26.89
2018-08-10T16:00:25.297Z,27.86
2018-08-10T16:02:55.415Z,28.71
2018-08-10T16:05:25.858Z,28.60
2018-08-10T16:07:56.180Z,28.76
2018-08-10T16:10:32.604Z,28.79
2018-08-10T16:13:05.774Z,28.88
2018-08-10T16:15:36.088Z,29.48
2018-08-10T16:18:16.301Z,28.00
2018-08-10T16:20:52.993Z,26.77
2018-08-10T16:23:23.591Z,26.26
2018-08-10T16:25:55.066Z,26.81
2018-08-10T16:28:27.151Z,27.07
2018-08-10T16:30:57.426Z,27.54
2018-08-10T16:33:28.525Z,27.65
2018-08-10T16:35:58.804Z,27.84
2018-08-10T16:38:29.278Z,28.23
2018-08-10T16:41:00.019Z,28.04
2018-08-10T16:43:30.583Z,28.02
2018-08-10T16:46:02.098Z,28.20
2018-08-10T16:48:33.053Z,27.99
2018-08-10T16:51:04.894Z,28.47
2018-08-10T16:53:35.150Z,28.82
2018-08-10T16:56:06.601Z,29.35
2018-08-10T16:58:39.340Z,29.44
2018-08-10T17:01:10.258Z,29.39
2018-08-10T17:03:41.160Z,29.77
2018-08-10T17:06:11.452Z,29.18
2018-08-10T17:08:43.357Z,29.31
2018-08-10T17:11:14.374Z,30.00
2018-08-10T17:13:44.664Z,30.25
2018-08-10T17:16:15.015Z,28.88
2018-08-10T17:18:46.301Z,27.44
2018-08-10T17:21:16.527Z,27.04
2018-08-10T17:23:47.621Z,26.79
2018-08-10T17:26:19.751Z,26.39
2018-08-10T17:28:51.254Z,26.01
2018-08-10T17:31:23.136Z,25.92
2018-08-10T17:33:53.457Z,25.66
2018-08-10T17:36:34.208Z,25.34
2018-08-10T17:39:07.994Z,25.22
2018-08-10T17:41:42.849Z,25.25
2018-08-10T17:44:14.906Z,25.02
2018-08-10T17:46:45.168Z,25.07
2018-08-10T17:49:15.883Z,25.13
2018-08-10T17:51:47.997Z,25.14
2018-08-10T17:57:00.220Z,24.89
2018-08-10T17:59:30.841Z,24.87
2018-08-10T18:02:02.885Z,25.18
2018-08-10T18:04:33.965Z,25.04
2018-08-10T18:07:04.246Z,24.82
2018-08-10T18:09:34.715Z,24.63
2018-08-10T18:12:06.754Z,24.38
2018-08-10T18:14:39.278Z,24.17
2018-08-10T18:17:16.377Z,24.09
2018-08-10T18:19:47.116Z,24.07
2018-08-10T18:22:18.804Z,24.14
2018-08-10T18:24:50.737Z,23.96
2018-08-10T18:27:22.215Z,23.87
2018-08-10T18:29:57.419Z,23.89
2018-08-10T18:32:31.530Z,23.70
2018-08-10T18:35:01.675Z,23.58
2018-08-10T18:37:32.508Z,23.60
2018-08-10T18:40:03.640Z,23.61
2018-08-10T18:42:34.043Z,23.61
2018-08-10T18:45:06.830Z,23.43
2018-08-10T18:47:37.686Z,23.34
2018-08-10T18:50:09.518Z,23.32
2018-08-10T18:52:40.573Z,23.27
2018-08-10T18:55:15.813Z,23.29
2018-08-10T18:57:46.157Z,23.32
2018-08-10T19:00:22.053Z,23.24
2018-08-10T19:02:53.625Z,23.21
2018-08-10T19:05:23.936Z,23.22
2018-08-10T19:07:54.149Z,23.12
2018-08-10T19:10:28.345Z,22.85
2018-08-10T19:12:58.731Z,22.50
2018-08-10T19:15:31.194Z,22.39
2018-08-10T19:18:02.532Z,22.26
2018-08-10T19:20:35.932Z,22.18
2018-08-10T19:23:07.495Z,22.05
2018-08-10T19:25:38.240Z,21.99
2018-08-10T19:28:12.323Z,22.10
2018-08-10T19:30:42.793Z,21.92
2018-08-10T19:33:13.957Z,21.77
2018-08-10T19:35:44.502Z,21.60
2018-08-10T19:38:15.944Z,21.55
2018-08-10T19:40:47.789Z,21.59
2018-08-10T19:43:18.059Z,21.31
2018-08-10T19:45:49.643Z,21.17
2018-08-10T19:48:21.092Z,21.13
2018-08-10T19:50:54.636Z,21.01
2018-08-10T19:53:25.036Z,21.01
2018-08-10T19:55:57.679Z,20.83
2018-08-10T19:58:28.989Z,20.81
2018-08-10T20:00:59.801Z,20.76
2018-08-10T20:03:31.585Z,20.63
2018-08-10T20:06:04.187Z,20.57
2018-08-10T20:08:36.536Z,20.54
2018-08-10T20:11:07.143Z,20.41
2018-08-10T20:13:39.458Z,20.31
2018-08-10T20:16:11.124Z,20.29
2018-08-10T20:18:41.523Z,20.20
2018-08-10T20:21:12.297Z,20.06
2018-08-10T20:23:43.453Z,20.12
2018-08-10T20:26:13.626Z,20.12
2018-08-10T20:28:46.085Z,20.12
2018-08-10T20:31:16.986Z,20.01
2018-08-10T20:33:50.210Z,19.96
2018-08-10T20:36:21.068Z,19.87
2018-08-10T20:38:52.162Z,19.87
2018-08-10T20:41:23.948Z,19.89
2018-08-10T20:43:56.273Z,19.90
2018-08-10T20:46:27.894Z,19.79
2018-08-10T20:48:59.322Z,19.66
2018-08-10T20:51:29.853Z,19.54
2018-08-10T20:54:00.548Z,19.54
2018-08-10T20:56:30.952Z,19.42
2018-08-10T20:59:01.995Z,19.39
2018-08-10T21:01:35.811Z,19.40
2018-08-10T21:04:09.112Z,19.38
2018-08-10T21:06:41.996Z,19.29
2018-08-10T21:09:13.692Z,19.26
2018-08-10T21:11:46.177Z,19.14
2018-08-10T21:14:17.512Z,19.21
2018-08-10T21:16:49.531Z,19.17
2018-08-10T21:19:20.142Z,19.22
2018-08-10T21:21:52.685Z,19.24
2018-08-10T21:24:25.015Z,19.24
2018-08-10T21:26:56.077Z,19.16
2018-08-10T21:29:27.567Z,19.15
2018-08-10T21:32:00.931Z,19.17
2018-08-10T21:34:33.539Z,19.08
2018-08-10T21:37:04.861Z,19.00
2018-08-10T21:39:35.586Z,18.94
2018-08-10T21:42:07.185Z,18.87
2018-08-10T21:44:39.332Z,18.83
2018-08-10T21:47:14.940Z,18.82
2018-08-10T21:49:46.540Z,18.77
2018-08-10T21:52:17.751Z,18.71
2018-08-10T21:54:48.066Z,18.60
2018-08-10T21:57:18.707Z,18.60
2018-08-10T21:59:49.713Z,18.52
2018-08-10T22:02:20.840Z,18.48
2018-08-10T22:04:50.885Z,18.48
2018-08-10T22:07:21.092Z,18.42
2018-08-10T22:09:52.243Z,18.40
2018-08-10T22:12:22.422Z,18.35
2018-08-10T22:14:59.386Z,18.29
2018-08-10T22:18:38.198Z,18.23
2018-08-10T22:21:10.023Z,18.12
2018-08-10T22:26:38.881Z,18.11
2018-08-10T22:29:10.472Z,18.06
2018-08-10T22:31:46.469Z,18.05
2018-08-10T22:34:17.095Z,17.98
2018-08-10T22:36:47.868Z,17.84
2018-08-10T22:39:18.626Z,17.83
2018-08-10T22:41:50.671Z,17.77
2018-08-10T22:44:21.463Z,17.74
2018-08-10T22:46:52.055Z,17.68
2018-08-10T22:49:23.321Z,17.62
2018-08-10T22:51:54.849Z,17.64
2018-08-10T22:54:25.555Z,17.63
2018-08-10T22:56:56.251Z,17.56
2018-08-10T22:59:26.646Z,17.56
2018-08-10T23:01:57.306Z,17.48
2018-08-10T23:04:31.615Z,17.43
2018-08-10T23:07:02.454Z,17.39
2018-08-10T23:09:32.604Z,17.37
2018-08-10T23:12:03.662Z,17.31
2018-08-10T23:14:34.773Z,17.24
2018-08-10T23:17:05.531Z,17.23
2018-08-10T23:19:35.847Z,17.06
2018-08-10T23:22:05.882Z,17.04
2018-08-10T23:24:36.067Z,17.07
2018-08-10T23:27:07.625Z,17.00
2018-08-10T23:29:38.379Z,17.04
2018-08-10T23:32:08.562Z,17.05
2018-08-10T23:34:39.696Z,17.07
2018-08-10T23:37:11.046Z,17.19
2018-08-10T23:39:42.764Z,17.13
2018-08-10T23:42:14.213Z,17.18
2018-08-10T23:44:45.289Z,17.10
2018-08-10T23:47:15.514Z,16.99
2018-08-10T23:49:45.907Z,16.94
2018-08-10T23:52:15.986Z,16.81
2018-08-10T23:54:46.128Z,16.78
2018-08-10T23:57:16.268Z,16.71
2018-08-10T23:59:46.336Z,16.68
